Current | Forecast
Updated: 2:00 PM GMT on July 22, 2017
Observed at Akureyri, Iceland
Temperature 73°F
Humidity 50%
Dew Point 54°F
Wind SSW at 20 mph
Pressure 29.74 in (Steady)
Conditions Partly Cloudy
Visibility 6.2 miles
UV 6 out of 16
Clouds (FEW) : 6700 ft
Yesterday's Maximum 57°F
Yesterday's Minimum 52°F approx.
Yesterday's Heating Degree Days 11 approx.
Sunrise3:24 AM GMT
Sunset11:10 PM GMT
Moon Rise2:38 AM GMT
Moon Set10:00 PM GMT
Moon PhaseMoon Phase
Waning Crescent
Raw METARMETAR BIAR 221400Z 20017KT 9999 FEW067 23/12 Q1007


Monday
. High: 35° F.
Tuesday
. High: 33° F.
Wednesday
. High: 33° F.
Thursday
. High: 33° F.
Friday
. High: 37° F.
Saturday
. High: 41° F.
Sunday
. High: 33° F.
Monday
. High: 39° F.

Units: English | Metric

Find the Weather for any City, State or Zipcode, or Country:

U.S. State List | Severe Weather | Tropical Storms | Ski Conditions
United States | Canada | Central America | South America | Asia | Europe | Australia | Africa | Islands

Weather Underground

© Copyright 2017
The Weather Company, LLC